createdAt,value
2023-04-29T00:02:18.699Z,99614.34
2023-04-29T00:04:46.450Z,99612.25
2023-04-29T00:07:14.101Z,99615.78
2023-04-29T00:09:42.762Z,99607.03
2023-04-29T00:12:10.020Z,99616.19
2023-04-29T00:14:37.344Z,99613.69
2023-04-29T00:17:04.876Z,99614.31
2023-04-29T00:19:32.276Z,99604.72
2023-04-29T00:21:59.605Z,99599.44
2023-04-29T00:24:26.926Z,99601.06
2023-04-29T00:26:55.622Z,99602.34
2023-04-29T00:29:22.956Z,99600.94
2023-04-29T00:31:50.227Z,99607.19
2023-04-29T00:34:17.629Z,99613.19
2023-04-29T00:36:45.038Z,99612.59
2023-04-29T00:39:13.961Z,99600.97
2023-04-29T00:41:42.680Z,99617.00
2023-04-29T00:44:11.425Z,99605.38
2023-04-29T00:46:38.877Z,99604.75
2023-04-29T00:49:10.504Z,99608.72
2023-04-29T00:51:38.589Z,99604.78
2023-04-29T00:54:06.329Z,99602.06
2023-04-29T00:56:36.126Z,99602.25
2023-04-29T00:59:03.485Z,99592.88
2023-04-29T01:01:32.741Z,99603.94
2023-04-29T01:04:00.605Z,99596.22
2023-04-29T01:06:37.380Z,99612.03
2023-04-29T01:09:21.956Z,99607.00
2023-04-29T01:12:11.695Z,99599.91
2023-04-29T01:14:43.307Z,99599.50
2023-04-29T01:17:18.278Z,99596.44
2023-04-29T01:19:50.136Z,99603.31
2023-04-29T01:22:17.666Z,99596.44
2023-04-29T01:24:46.453Z,99599.38
2023-04-29T01:27:22.929Z,99591.47
2023-04-29T01:29:56.369Z,99596.88
2023-04-29T01:32:37.213Z,99588.97
2023-04-29T01:35:11.614Z,99587.28
2023-04-29T01:37:48.373Z,99587.28
2023-04-29T01:40:23.972Z,99599.78
2023-04-29T01:43:00.559Z,99594.56
2023-04-29T01:45:29.576Z,99592.91
2023-04-29T01:47:57.980Z,99590.84
2023-04-29T01:50:25.396Z,99592.69
2023-04-29T01:52:52.769Z,99587.88
2023-04-29T01:55:21.946Z,99591.41
2023-04-29T01:57:49.349Z,99590.19
2023-04-29T02:00:16.915Z,99591.25
2023-04-29T02:02:44.308Z,99598.94
2023-04-29T02:05:11.772Z,99597.94
2023-04-29T02:07:39.119Z,99610.16
2023-04-29T02:10:07.299Z,99609.75
2023-04-29T02:12:36.021Z,99594.38
2023-04-29T02:15:03.658Z,99599.34
2023-04-29T02:17:31.041Z,99605.59
2023-04-29T02:19:58.329Z,99620.56
2023-04-29T02:22:25.623Z,99616.81
2023-04-29T02:24:53.081Z,99612.66
2023-04-29T02:27:20.398Z,99625.25
2023-04-29T02:29:49.174Z,99613.06
2023-04-29T02:32:16.535Z,99604.91
2023-04-29T02:34:43.947Z,99608.88
2023-04-29T02:37:11.221Z,99607.03
2023-04-29T02:39:38.544Z,99602.72
2023-04-29T02:42:05.938Z,99596.66
2023-04-29T02:44:33.363Z,99589.78
2023-04-29T02:47:02.423Z,99598.13
2023-04-29T02:49:29.719Z,99597.50
2023-04-29T02:51:57.102Z,99598.94
2023-04-29T02:54:24.502Z,99590.22
2023-04-29T02:56:51.793Z,99593.97
2023-04-29T02:59:19.139Z,99598.13
2023-04-29T03:01:46.675Z,99594.97
2023-04-29T03:04:15.711Z,99583.56
2023-04-29T03:06:43.199Z,99594.41
2023-04-29T03:09:10.485Z,99593.94
2023-04-29T03:11:37.819Z,99585.66
2023-04-29T03:14:05.221Z,99593.53
2023-04-29T03:16:32.533Z,99591.25
2023-04-29T03:18:59.838Z,99594.78
2023-04-29T03:21:28.562Z,99598.75
2023-04-29T03:23:55.872Z,99596.88
2023-04-29T03:26:23.305Z,99588.97
2023-04-29T03:28:50.681Z,99592.50
2023-04-29T03:31:18.319Z,99582.94
2023-04-29T03:33:45.726Z,99599.34
2023-04-29T03:36:13.016Z,99589.16
2023-04-29T03:38:41.727Z,99595.63
2023-04-29T03:41:09.608Z,99595.81
2023-04-29T03:43:36.945Z,99591.88
2023-04-29T03:46:04.306Z,99585.44
2023-04-29T03:48:31.693Z,99584.63
2023-04-29T03:50:59.033Z,99585.63
2023-04-29T03:53:26.517Z,99575.28
2023-04-29T03:55:55.223Z,99576.91
2023-04-29T03:58:22.654Z,99568.63
2023-04-29T04:00:50.000Z,99579.22
2023-04-29T04:03:17.508Z,99577.13
2023-04-29T04:05:44.992Z,99589.38
2023-04-29T04:08:12.326Z,99588.91
2023-04-29T04:10:39.575Z,99576.66
2023-04-29T04:13:08.253Z,99587.28
2023-04-29T04:15:37.780Z,99583.13
2023-04-29T04:18:14.237Z,99585.84
2023-04-29T04:20:41.571Z,99587.31
2023-04-29T04:23:08.891Z,99576.31
2023-04-29T04:25:38.668Z,99574.41
2023-04-29T04:28:05.960Z,99570.88
2023-04-29T04:30:35.732Z,99571.72
2023-04-29T04:33:03.107Z,99572.78
2023-04-29T04:35:30.391Z,99573.41
2023-04-29T04:37:57.703Z,99579.81
2023-04-29T04:40:25.133Z,99584.63
2023-04-29T04:42:54.715Z,99582.56
2023-04-29T04:45:22.555Z,99592.91
2023-04-29T04:47:51.269Z,99587.72
2023-04-29T04:50:18.716Z,99577.13
2023-04-29T04:52:48.281Z,99568.41
2023-04-29T04:55:15.824Z,99585.22
2023-04-29T04:57:43.170Z,99601.03
2023-04-29T05:00:12.021Z,99605.81
2023-04-29T05:02:39.418Z,99605.16
2023-04-29T05:05:08.904Z,99607.69
2023-04-29T05:07:36.314Z,99614.34
2023-04-29T05:10:11.298Z,99611.81
2023-04-29T05:12:38.626Z,99625.53
2023-04-29T05:15:07.175Z,99624.75
2023-04-29T05:17:34.620Z,99625.53
2023-04-29T05:20:02.461Z,99644.66
2023-04-29T05:22:31.610Z,99640.47
2023-04-29T05:24:59.262Z,99655.00
2023-04-29T05:27:27.170Z,99652.50
2023-04-29T05:29:54.773Z,99656.88
2023-04-29T05:32:22.560Z,99663.97
2023-04-29T05:34:49.924Z,99657.13
2023-04-29T05:37:17.233Z,99655.69
2023-04-29T05:39:45.984Z,99665.66
2023-04-29T05:42:13.259Z,99660.06
2023-04-29T05:44:40.524Z,99672.97
2023-04-29T05:47:07.814Z,99681.69
2023-04-29T05:49:35.297Z,99672.53
2023-04-29T05:52:02.625Z,99679.97
2023-04-29T05:54:33.129Z,99676.84
2023-04-29T05:57:02.678Z,99683.28
2023-04-29T05:59:30.098Z,99692.44
2023-04-29T06:01:57.533Z,99694.13
2023-04-29T06:04:25.285Z,99690.31
2023-04-29T06:06:53.646Z,99681.22
2023-04-29T06:09:27.501Z,99698.06
2023-04-29T06:11:55.479Z,99695.59
2023-04-29T06:14:24.385Z,99694.34
2023-04-29T06:16:51.693Z,99699.09
2023-04-29T06:19:18.973Z,99696.63
2023-04-29T06:21:46.309Z,99702.25
2023-04-29T06:24:16.262Z,99699.06
2023-04-29T06:26:43.580Z,99708.31
2023-04-29T06:29:11.022Z,99707.34
2023-04-29T06:31:39.782Z,99704.00
2023-04-29T06:34:07.105Z,99702.41
2023-04-29T06:36:34.424Z,99699.00
2023-04-29T06:39:01.760Z,99706.91
2023-04-29T06:41:29.067Z,99697.38
2023-04-29T06:43:56.377Z,99705.41
2023-04-29T06:46:23.692Z,99697.56
2023-04-29T06:48:52.441Z,99700.94
2023-04-29T06:51:19.721Z,99702.38
2023-04-29T06:53:47.084Z,99703.22
2023-04-29T06:56:16.732Z,99705.47
2023-04-29T06:58:44.455Z,99717.97
2023-04-29T07:01:11.982Z,99719.19
2023-04-29T07:03:39.491Z,99721.88
2023-04-29T07:06:08.272Z,99730.59
2023-04-29T07:08:35.595Z,99727.09
2023-04-29T07:11:02.910Z,99724.09
2023-04-29T07:13:30.350Z,99729.25
2023-04-29T07:15:57.680Z,99737.78
2023-04-29T07:18:25.018Z,99744.06
2023-04-29T07:20:52.399Z,99743.09
2023-04-29T07:23:21.085Z,99744.66
2023-04-29T07:25:48.418Z,99745.50
2023-04-29T07:28:15.712Z,99747.34
2023-04-29T07:30:43.022Z,99751.34
2023-04-29T07:33:10.392Z,99755.47
2023-04-29T07:35:37.741Z,99756.94
2023-04-29T07:38:05.001Z,99762.63
2023-04-29T07:40:33.752Z,99769.56
2023-04-29T07:43:01.007Z,99770.13
2023-04-29T07:45:28.424Z,99768.34
2023-04-29T07:47:55.763Z,99767.38
2023-04-29T07:50:23.145Z,99760.09
2023-04-29T07:52:50.498Z,99759.75
2023-04-29T07:55:17.911Z,99765.19
2023-04-29T07:57:46.613Z,99765.63
2023-04-29T08:00:14.429Z,99766.09
2023-04-29T08:02:41.846Z,99765.22
2023-04-29T08:05:09.853Z,99756.94
2023-04-29T08:07:37.322Z,99760.00
2023-04-29T08:10:05.500Z,99750.47
2023-04-29T08:12:32.845Z,99757.97
2023-04-29T08:15:01.548Z,99750.03
2023-04-29T08:17:28.862Z,99747.38
2023-04-29T08:19:56.239Z,99742.00
2023-04-29T08:22:23.600Z,99738.06
2023-04-29T08:24:51.234Z,99746.19
2023-04-29T08:27:18.783Z,99756.16
2023-04-29T08:32:15.074Z,99761.59
2023-04-29T08:34:42.408Z,99765.78
2023-04-29T08:37:09.723Z,99760.34
2023-04-29T08:39:37.009Z,99767.44
2023-04-29T08:42:08.616Z,99769.72
2023-04-29T08:44:36.208Z,99775.97
2023-04-29T08:47:03.795Z,99772.00
2023-04-29T08:49:32.925Z,99778.03
2023-04-29T08:52:00.547Z,99776.16
2023-04-29T08:54:27.856Z,99779.88
2023-04-29T08:56:55.541Z,99783.25
2023-04-29T08:59:23.530Z,99788.66
2023-04-29T09:01:54.106Z,99794.47
2023-04-29T09:04:36.837Z,99802.41
2023-04-29T09:07:05.568Z,99794.28
2023-04-29T09:09:33.658Z,99798.22
2023-04-29T09:12:00.959Z,99802.56
2023-04-29T09:14:30.320Z,99797.59
2023-04-29T09:16:57.826Z,99795.75
2023-04-29T09:19:30.412Z,99792.78
2023-04-29T09:21:59.765Z,99797.59
2023-04-29T09:24:27.753Z,99805.28
2023-04-29T09:26:55.549Z,99800.72
2023-04-29T09:29:22.967Z,99810.72
2023-04-29T09:31:51.124Z,99805.91
2023-04-29T09:34:18.673Z,99796.34
2023-04-29T09:36:47.587Z,99803.16
2023-04-29T09:39:17.517Z,99798.78
2023-04-29T09:42:00.983Z,99800.66
2023-04-29T09:44:33.601Z,99798.13
2023-04-29T09:47:03.178Z,99799.59
2023-04-29T09:49:32.164Z,99793.94
2023-04-29T09:52:01.475Z,99802.84
2023-04-29T09:54:31.846Z,99798.53
2023-04-29T09:57:01.196Z,99805.22
2023-04-29T09:59:28.680Z,99803.13
2023-04-29T10:01:58.484Z,99801.72
2023-04-29T10:04:27.592Z,99798.59
2023-04-29T10:06:56.147Z,99799.88
2023-04-29T10:09:24.191Z,99804.47
2023-04-29T10:11:53.669Z,99807.75
2023-04-29T10:14:22.915Z,99798.59
2023-04-29T10:16:54.426Z,99805.03
2023-04-29T10:19:28.517Z,99804.84
2023-04-29T10:22:00.627Z,99808.19
2023-04-29T10:24:28.230Z,99809.44
2023-04-29T10:26:57.445Z,99816.31
2023-04-29T10:29:27.529Z,99814.88
2023-04-29T10:31:57.297Z,99818.19
2023-04-29T10:34:26.481Z,99816.31
2023-04-29T10:36:53.931Z,99814.03
2023-04-29T10:39:30.121Z,99812.59
2023-04-29T10:41:58.926Z,99806.75
2023-04-29T10:44:26.256Z,99823.19
2023-04-29T10:47:21.527Z,99810.88
2023-04-29T10:50:05.184Z,99818.59
2023-04-29T10:52:51.569Z,99821.09
2023-04-29T10:55:19.022Z,99821.09
2023-04-29T10:57:47.666Z,99821.09
2023-04-29T11:00:22.099Z,99818.19
2023-04-29T11:02:49.501Z,99813.81
2023-04-29T11:07:45.708Z,99817.75
2023-04-29T11:10:13.593Z,99818.56
2023-04-29T11:12:41.005Z,99818.56
2023-04-29T11:15:10.459Z,99811.72
2023-04-29T11:17:38.139Z,99802.47
2023-04-29T11:20:13.693Z,99809.34
2023-04-29T11:22:42.377Z,99808.13
2023-04-29T11:25:10.047Z,99807.09
2023-04-29T11:27:38.831Z,99802.50
2023-04-29T11:30:07.840Z,99809.72
2023-04-29T11:32:38.090Z,99817.84
2023-04-29T11:35:10.073Z,99816.44
2023-04-29T11:37:37.753Z,99818.81
2023-04-29T11:40:06.575Z,99813.19
2023-04-29T11:42:34.768Z,99808.41
2023-04-29T11:45:02.206Z,99807.38
2023-04-29T11:47:31.043Z,99816.31
2023-04-29T11:50:07.887Z,99828.59
2023-04-29T11:52:36.534Z,99811.75
2023-04-29T11:55:04.715Z,99822.78
2023-04-29T11:57:32.320Z,99810.72
2023-04-29T11:59:59.659Z,99805.72
2023-04-29T12:02:29.925Z,99822.13
2023-04-29T12:04:57.771Z,99812.38
2023-04-29T12:07:27.273Z,99821.13
2023-04-29T12:09:55.062Z,99815.69
2023-04-29T12:12:22.823Z,99821.09
2023-04-29T12:14:50.846Z,99824.41
2023-04-29T12:17:18.748Z,99827.38
2023-04-29T12:19:46.515Z,99826.09
2023-04-29T12:22:13.821Z,99822.59
2023-04-29T12:24:42.898Z,99825.69
2023-04-29T12:27:10.891Z,99837.34
2023-04-29T12:29:39.332Z,99823.16
2023-04-29T12:32:06.770Z,99824.00
2023-04-29T12:34:34.251Z,99826.94
2023-04-29T12:37:02.493Z,99815.69
2023-04-29T12:39:31.111Z,99821.53
2023-04-29T12:42:00.565Z,99828.19
2023-04-29T12:44:35.535Z,99821.53
2023-04-29T12:47:08.886Z,99816.53
2023-04-29T12:49:36.618Z,99824.22
2023-04-29T12:52:04.463Z,99818.00
2023-04-29T12:54:31.841Z,99818.19
2023-04-29T12:57:00.870Z,99809.44
2023-04-29T12:59:28.493Z,99811.13
2023-04-29T13:01:55.927Z,99812.56
2023-04-29T13:04:23.287Z,99815.69
2023-04-29T13:06:50.715Z,99807.34
2023-04-29T13:09:19.100Z,99813.81
2023-04-29T13:11:46.585Z,99815.06
2023-04-29T13:14:15.727Z,99812.38
2023-04-29T13:16:43.125Z,99806.31
2023-04-29T13:19:28.240Z,99808.41
2023-04-29T13:21:57.837Z,99812.38
2023-04-29T13:24:25.217Z,99812.78
2023-04-29T13:26:52.981Z,99809.88
2023-04-29T13:29:21.713Z,99809.84
2023-04-29T13:31:49.041Z,99808.19
2023-04-29T13:34:16.378Z,99806.53
2023-04-29T13:36:43.700Z,99805.28
2023-04-29T13:39:11.058Z,99804.44
2023-04-29T13:41:42.256Z,99810.91
2023-04-29T13:46:44.605Z,99807.75
2023-04-29T13:49:38.448Z,99805.22
2023-04-29T13:59:41.589Z,99796.69
2023-04-29T14:02:24.078Z,99787.56
2023-04-29T14:04:53.958Z,99787.75
2023-04-29T14:07:21.884Z,99791.50
2023-04-29T14:09:49.242Z,99787.56
2023-04-29T14:12:16.549Z,99788.13
2023-04-29T14:14:43.883Z,99788.50
2023-04-29T14:17:11.200Z,99784.47
2023-04-29T14:19:39.880Z,99785.16
2023-04-29T14:22:07.210Z,99792.16
2023-04-29T14:24:34.536Z,99788.53
2023-04-29T14:27:01.819Z,99788.34
2023-04-29T14:29:29.085Z,99796.88
2023-04-29T14:31:56.428Z,99794.59
2023-04-29T14:34:23.712Z,99793.31
2023-04-29T14:36:52.362Z,99809.13
2023-04-29T14:39:19.681Z,99801.34
2023-04-29T14:41:46.978Z,99808.03
2023-04-29T14:44:14.280Z,99810.06
2023-04-29T14:46:41.728Z,99801.56
2023-04-29T14:49:09.129Z,99815.94
2023-04-29T14:51:36.465Z,99809.22
2023-04-29T14:54:05.166Z,99809.63
2023-04-29T14:56:32.453Z,99806.28
2023-04-29T14:58:59.726Z,99811.13
2023-04-29T15:01:27.209Z,99823.22
2023-04-29T15:03:55.260Z,99824.50
2023-04-29T15:06:22.763Z,99822.75
2023-04-29T15:08:50.128Z,99814.88
2023-04-29T15:11:18.770Z,99819.88
2023-04-29T15:13:46.129Z,99818.66
2023-04-29T15:16:13.509Z,99821.56
2023-04-29T15:18:41.638Z,99825.75
2023-04-29T15:21:10.689Z,99832.28
2023-04-29T15:23:38.014Z,99831.81
2023-04-29T15:26:05.349Z,99833.69
2023-04-29T15:28:34.069Z,99839.00
2023-04-29T15:31:01.371Z,99842.47
2023-04-29T15:33:28.855Z,99838.25
2023-04-29T15:35:56.447Z,99835.72
2023-04-29T15:38:24.025Z,99835.53
2023-04-29T15:40:51.369Z,99837.78
2023-04-29T15:43:18.698Z,99846.34
2023-04-29T15:45:47.472Z,99846.69
2023-04-29T15:48:14.786Z,99847.03
2023-04-29T15:50:42.121Z,99843.72
2023-04-29T15:53:09.536Z,99836.59
2023-04-29T15:55:36.878Z,99837.47
2023-04-29T15:58:04.317Z,99840.19
2023-04-29T16:00:31.586Z,99839.16
2023-04-29T16:03:00.359Z,99833.69
2023-04-29T16:05:27.770Z,99839.22
2023-04-29T16:07:55.077Z,99834.84
2023-04-29T16:10:22.511Z,99833.06
2023-04-29T16:12:49.827Z,99837.66
2023-04-29T16:15:17.279Z,99831.88
2023-04-29T16:17:44.784Z,99834.41
2023-04-29T16:20:13.664Z,99836.53
2023-04-29T16:22:41.021Z,99839.09
2023-04-29T16:25:09.292Z,99843.19
2023-04-29T16:27:36.649Z,99833.53
2023-04-29T16:30:04.565Z,99840.88
2023-04-29T16:32:32.123Z,99841.44
2023-04-29T16:35:01.400Z,99837.16
2023-04-29T16:37:30.541Z,99839.47
2023-04-29T16:39:57.938Z,99847.94
2023-04-29T16:42:25.349Z,99839.03
2023-04-29T16:44:52.613Z,99852.53
2023-04-29T16:47:20.060Z,99842.81
2023-04-29T16:49:47.682Z,99851.56
2023-04-29T16:52:15.028Z,99854.63
2023-04-29T16:54:43.678Z,99847.56
2023-04-29T16:57:11.163Z,99847.31
2023-04-29T16:59:38.467Z,99857.59
2023-04-29T17:02:05.898Z,99856.66
2023-04-29T17:04:33.478Z,99857.59
2023-04-29T17:07:00.861Z,99859.88
2023-04-29T17:09:28.157Z,99856.53
2023-04-29T17:11:56.886Z,99866.56
2023-04-29T17:14:24.317Z,99872.34
2023-04-29T17:16:51.656Z,99875.44
2023-04-29T17:19:19.448Z,99879.72
2023-04-29T17:21:46.837Z,99881.41
2023-04-29T17:24:14.212Z,99884.94
2023-04-29T17:26:41.613Z,99881.47
2023-04-29T17:29:10.336Z,99883.78
2023-04-29T17:31:37.685Z,99889.34
2023-04-29T17:34:05.055Z,99883.75
2023-04-29T17:36:32.438Z,99885.78
2023-04-29T17:38:59.730Z,99881.06
2023-04-29T17:41:27.007Z,99881.88
2023-04-29T17:43:54.349Z,99886.53
2023-04-29T17:46:23.076Z,99886.25
2023-04-29T17:48:50.387Z,99890.56
2023-04-29T17:51:17.737Z,99889.44
2023-04-29T17:53:45.108Z,99879.53
2023-04-29T17:56:12.504Z,99884.56
2023-04-29T17:58:39.778Z,99879.91
2023-04-29T18:01:07.158Z,99891.22
2023-04-29T18:03:35.907Z,99882.03
2023-04-29T18:06:03.547Z,99891.34
2023-04-29T18:08:33.512Z,99894.56
2023-04-29T18:11:00.912Z,99902.97
2023-04-29T18:13:28.233Z,99899.75
2023-04-29T18:15:55.636Z,99900.44
2023-04-29T18:18:22.927Z,99899.03
2023-04-29T18:20:51.603Z,99900.00
2023-04-29T18:23:18.925Z,99899.38
2023-04-29T18:25:46.500Z,99903.13
2023-04-29T18:28:24.882Z,99909.88
2023-04-29T18:30:53.028Z,99916.94
2023-04-29T18:33:20.441Z,99923.72
2023-04-29T18:35:47.897Z,99922.69
2023-04-29T18:38:16.632Z,99923.06
2023-04-29T18:40:44.291Z,99926.94
2023-04-29T18:43:11.610Z,99930.84
2023-04-29T18:45:38.916Z,99928.22
2023-04-29T18:48:06.412Z,99932.25
2023-04-29T18:50:34.097Z,99928.34
2023-04-29T18:53:01.522Z,99940.16
2023-04-29T18:55:30.190Z,99932.22
2023-04-29T18:57:57.542Z,99938.94
2023-04-29T19:00:24.877Z,99946.06
2023-04-29T19:02:52.265Z,99954.28
2023-04-29T19:05:19.706Z,99960.50
2023-04-29T19:07:47.036Z,99959.47
2023-04-29T19:10:14.421Z,99959.56
2023-04-29T19:12:43.111Z,99970.97
2023-04-29T19:15:10.969Z,99975.91
2023-04-29T19:17:38.294Z,99974.22
2023-04-29T19:20:06.963Z,99978.88
2023-04-29T19:22:34.396Z,99980.66
2023-04-29T19:25:02.112Z,99993.69
2023-04-29T19:27:29.611Z,99993.16
2023-04-29T19:29:58.280Z,99996.88
2023-04-29T19:32:27.611Z,99994.19
2023-04-29T19:34:56.169Z,100007.97
2023-04-29T19:37:23.540Z,99999.50
2023-04-29T19:39:50.967Z,100014.38
2023-04-29T19:42:18.307Z,100021.16
2023-04-29T19:44:45.672Z,100023.25
2023-04-29T19:47:14.574Z,100032.81
2023-04-29T19:49:41.845Z,100037.72
2023-04-29T19:52:09.167Z,100034.06
2023-04-29T19:54:36.500Z,100046.00
2023-04-29T19:57:04.035Z,100050.72
2023-04-29T19:59:31.338Z,100048.03
2023-04-29T20:01:58.782Z,100048.34
2023-04-29T20:04:27.653Z,100046.19
2023-04-29T20:06:54.929Z,100055.28
2023-04-29T20:09:22.214Z,100050.66
2023-04-29T20:11:49.489Z,100057.81
2023-04-29T20:14:17.078Z,100061.25
2023-04-29T20:16:44.469Z,100058.97
2023-04-29T20:19:11.833Z,100061.38
2023-04-29T20:21:40.594Z,100073.72
2023-04-29T20:24:07.851Z,100071.63
2023-04-29T20:26:35.196Z,100059.16
2023-04-29T20:29:02.502Z,100057.13
2023-04-29T20:31:29.981Z,100065.03
2023-04-29T20:33:57.323Z,100075.44
2023-04-29T20:36:24.603Z,100080.16
2023-04-29T20:38:53.337Z,100085.19
2023-04-29T20:41:20.662Z,100089.19
2023-04-29T20:43:48.084Z,100089.44
2023-04-29T20:46:15.464Z,100085.72
2023-04-29T20:48:42.830Z,100096.81
2023-04-29T20:51:10.255Z,100094.41
2023-04-29T20:53:37.746Z,100104.72
2023-04-29T20:56:07.237Z,100095.91
2023-04-29T20:58:34.556Z,100099.75
2023-04-29T21:01:01.929Z,100096.78
2023-04-29T21:03:29.229Z,100095.00
2023-04-29T21:05:56.913Z,100103.25
2023-04-29T21:08:24.297Z,100102.53
2023-04-29T21:10:51.583Z,100097.66
2023-04-29T21:13:20.268Z,100100.28
2023-04-29T21:15:56.576Z,100100.13
2023-04-29T21:18:26.223Z,100102.19
2023-04-29T21:20:53.624Z,100106.09
2023-04-29T21:23:20.987Z,100094.47
2023-04-29T21:25:48.527Z,100096.31
2023-04-29T21:28:16.920Z,100103.41
2023-04-29T21:30:45.787Z,100101.59
2023-04-29T21:33:13.071Z,100097.91
2023-04-29T21:35:40.649Z,100105.06
2023-04-29T21:38:08.051Z,100106.75
2023-04-29T21:40:39.664Z,100105.91
2023-04-29T21:43:07.014Z,100098.72
2023-04-29T21:45:34.467Z,100101.34
2023-04-29T21:48:13.370Z,100103.38
2023-04-29T21:50:41.069Z,100108.22
2023-04-29T21:53:08.428Z,100113.44
2023-04-29T21:55:35.910Z,100111.63
2023-04-29T21:58:03.451Z,100106.91
2023-04-29T22:00:30.984Z,100103.75
2023-04-29T22:02:59.356Z,100107.00
2023-04-29T22:05:28.036Z,100103.84
2023-04-29T22:07:57.504Z,100104.41
2023-04-29T22:10:25.256Z,100107.75
2023-04-29T22:12:52.850Z,100104.41
2023-04-29T22:15:28.084Z,100098.59
2023-04-29T22:17:56.416Z,100104.13
2023-04-29T22:20:23.868Z,100111.28
2023-04-29T22:22:52.579Z,100100.78
2023-04-29T22:25:19.968Z,100106.97
2023-04-29T22:27:47.474Z,100107.56
2023-04-29T22:30:14.843Z,100096.03
2023-04-29T22:32:42.138Z,100095.91
2023-04-29T22:35:09.773Z,100091.09
2023-04-29T22:37:37.113Z,100099.03
2023-04-29T22:40:07.209Z,100089.06
2023-04-29T22:42:34.501Z,100097.66
2023-04-29T22:45:01.837Z,100094.66
2023-04-29T22:47:29.681Z,100100.88
2023-04-29T22:49:57.267Z,100089.56
2023-04-29T22:52:24.544Z,100089.44
2023-04-29T22:54:51.846Z,100099.97
2023-04-29T22:57:20.567Z,100098.84
2023-04-29T22:59:47.961Z,100102.56
2023-04-29T23:02:15.251Z,100096.69
2023-04-29T23:04:42.619Z,100097.53
2023-04-29T23:07:10.028Z,100095.69
2023-04-29T23:09:37.342Z,100090.84
2023-04-29T23:12:04.935Z,100090.34
2023-04-29T23:14:33.573Z,100092.13
2023-04-29T23:17:00.858Z,100085.38
2023-04-29T23:19:28.152Z,100094.13
2023-04-29T23:21:55.433Z,100092.38
2023-04-29T23:24:22.904Z,100093.22
2023-04-29T23:26:50.206Z,100098.97
2023-04-29T23:29:17.521Z,100092.88
2023-04-29T23:31:46.290Z,100093.63
2023-04-29T23:34:13.615Z,100093.69
2023-04-29T23:36:40.893Z,100091.19
2023-04-29T23:39:08.183Z,100087.59
2023-04-29T23:41:35.459Z,100088.09
2023-04-29T23:44:02.789Z,100094.06
2023-04-29T23:46:30.163Z,100095.09
2023-04-29T23:48:58.953Z,100088.03
2023-04-29T23:51:26.239Z,100083.97
2023-04-29T23:53:53.524Z,100089.56
2023-04-29T23:56:20.917Z,100091.59
2023-04-29T23:58:48.301Z,100085.16
